sensor_id;sensor_type;location;lat;lon;timestamp;pressure;altitude;pressure_sealevel;temperature;humidity
23805;BME280;12083;52.098;7.582;2022-10-28T07:10:36;101465.19;;;13.95;100.00
23805;BME280;12083;52.098;7.582;2022-10-28T07:13:02;101463.03;;;14.10;100.00
23805;BME280;12083;52.098;7.582;2022-10-28T07:24:27;101464.66;;;14.79;100.00
23805;BME280;12083;52.098;7.582;2022-10-28T07:26:53;101461.47;;;14.97;100.00
23805;BME280;12083;52.098;7.582;2022-10-28T07:29:19;101458.91;;;15.22;100.00
23805;BME280;12083;52.098;7.582;2022-10-28T07:31:44;101460.75;;;15.48;100.00
23805;BME280;12083;52.098;7.582;2022-10-28T07:34:10;101467.91;;;15.72;100.00
23805;BME280;12083;52.098;7.582;2022-10-28T07:36:35;101462.72;;;15.95;100.00
23805;BME280;12083;52.098;7.582;2022-10-28T07:45:56;101472.00;;;16.58;100.00
23805;BME280;12083;52.098;7.582;2022-10-28T07:48:22;101468.78;;;16.73;100.00
23805;BME280;12083;52.098;7.582;2022-10-28T07:50:48;101472.59;;;16.89;100.00
23805;BME280;12083;52.098;7.582;2022-10-28T07:53:14;101473.66;;;17.07;100.00
23805;BME280;12083;52.098;7.582;2022-10-28T07:55:39;101465.06;;;17.24;100.00
23805;BME280;12083;52.098;7.582;2022-10-28T07:58:05;101463.53;;;17.40;100.00
23805;BME280;12083;52.098;7.582;2022-10-28T08:00:30;101459.31;;;17.56;100.00
23805;BME280;12083;52.098;7.582;2022-10-28T08:02:56;101465.81;;;17.71;100.00
23805;BME280;12083;52.098;7.582;2022-10-28T08:05:22;101459.91;;;17.84;100.00
23805;BME280;12083;52.098;7.582;2022-10-28T08:07:47;101467.31;;;17.98;100.00
23805;BME280;12083;52.098;7.582;2022-10-28T08:10:13;101474.78;;;18.10;100.00
23805;BME280;12083;52.098;7.582;2022-10-28T08:12:38;101476.03;;;18.22;100.00
23805;BME280;12083;52.098;7.582;2022-10-28T08:15:04;101466.66;;;18.33;100.00
23805;BME280;12083;52.098;7.582;2022-10-28T08:17:30;101469.72;;;18.44;100.00
23805;BME280;12083;52.098;7.582;2022-10-28T08:19:55;101460.34;;;18.56;100.00
23805;BME280;12083;52.098;7.582;2022-10-28T08:22:21;101460.72;;;18.67;100.00
23805;BME280;12083;52.098;7.582;2022-10-28T08:24:47;101454.91;;;18.78;100.00
23805;BME280;12083;52.098;7.582;2022-10-28T08:27:13;101455.25;;;18.89;100.00
23805;BME280;12083;52.098;7.582;2022-10-28T08:29:38;101457.44;;;18.99;100.00
23805;BME280;12083;52.098;7.582;2022-10-28T08:32:07;101461.41;;;19.10;100.00
23805;BME280;12083;52.098;7.582;2022-10-28T08:34:32;101452.88;;;19.20;100.00
23805;BME280;12083;52.098;7.582;2022-10-28T08:36:58;101456.84;;;19.30;100.00
23805;BME280;12083;52.098;7.582;2022-10-28T08:39:24;101451.06;;;19.39;100.00
23805;BME280;12083;52.098;7.582;2022-10-28T08:50:15;101445.53;;;19.80;100.00
23805;BME280;12083;52.098;7.582;2022-10-28T08:52:54;101444.25;;;19.87;100.00
23805;BME280;12083;52.098;7.582;2022-10-28T08:55:45;101434.13;;;19.93;100.00
23805;BME280;12083;52.098;7.582;2022-10-28T08:58:21;101447.94;;;20.02;100.00
23805;BME280;12083;52.098;7.582;2022-10-28T09:00:51;101439.66;;;20.08;100.00
23805;BME280;12083;52.098;7.582;2022-10-28T09:03:24;101441.81;;;20.17;100.00
23805;BME280;12083;52.098;7.582;2022-10-28T09:06:01;101440.66;;;20.22;100.00
23805;BME280;12083;52.098;7.582;2022-10-28T09:08:30;101455.41;;;20.29;100.00
23805;BME280;12083;52.098;7.582;2022-10-28T09:14:52;101452.97;;;20.42;100.00
23805;BME280;12083;52.098;7.582;2022-10-28T09:16:58;101458.66;;;20.52;100.00
23805;BME280;12083;52.098;7.582;2022-10-28T09:22:27;101457.69;;;20.70;100.00
23805;BME280;12083;52.098;7.582;2022-10-28T09:25:08;101449.97;;;20.81;100.00
23805;BME280;12083;52.098;7.582;2022-10-28T09:30:30;101440.25;;;20.96;100.00
23805;BME280;12083;52.098;7.582;2022-10-28T09:33:32;101436.19;;;21.04;100.00
23805;BME280;12083;52.098;7.582;2022-10-28T09:36:02;101439.25;;;21.14;100.00
23805;BME280;12083;52.098;7.582;2022-10-28T09:38:32;101433.38;;;21.23;100.00
23805;BME280;12083;52.098;7.582;2022-10-28T09:41:22;101430.16;;;21.32;100.00
23805;BME280;12083;52.098;7.582;2022-10-28T09:43:50;101433.13;;;21.43;100.00
23805;BME280;12083;52.098;7.582;2022-10-28T09:46:17;101427.41;;;21.49;100.00
23805;BME280;12083;52.098;7.582;2022-10-28T09:48:55;101417.81;;;21.61;100.00
23805;BME280;12083;52.098;7.582;2022-10-28T09:53:56;101424.66;;;21.80;100.00
23805;BME280;12083;52.098;7.582;2022-10-28T09:56:23;101432.94;;;21.92;100.00
23805;BME280;12083;52.098;7.582;2022-10-28T09:58:51;101422.63;;;22.00;100.00
23805;BME280;12083;52.098;7.582;2022-10-28T10:01:17;101422.09;;;22.09;100.00
23805;BME280;12083;52.098;7.582;2022-10-28T10:03:46;101440.16;;;22.19;100.00
23805;BME280;12083;52.098;7.582;2022-10-28T10:06:20;101445.81;;;22.29;100.00
23805;BME280;12083;52.098;7.582;2022-10-28T10:08:48;101441.63;;;22.39;100.00
23805;BME280;12083;52.098;7.582;2022-10-28T10:11:19;101446.22;;;22.51;100.00
23805;BME280;12083;52.098;7.582;2022-10-28T10:13:46;101441.22;;;22.59;100.00
23805;BME280;12083;52.098;7.582;2022-10-28T10:16:20;101445.28;;;22.66;99.07
23805;BME280;12083;52.098;7.582;2022-10-28T10:18:50;101436.78;;;22.74;98.73
23805;BME280;12083;52.098;7.582;2022-10-28T10:21:50;101442.53;;;22.82;98.11
23805;BME280;12083;52.098;7.582;2022-10-28T10:24:23;101436.69;;;22.90;97.91
23805;BME280;12083;52.098;7.582;2022-10-28T10:26:50;101433.59;;;22.96;98.04
23805;BME280;12083;52.098;7.582;2022-10-28T10:29:16;101431.56;;;22.99;96.89
23805;BME280;12083;52.098;7.582;2022-10-28T10:31:42;101431.47;;;23.01;96.78
23805;BME280;12083;52.098;7.582;2022-10-28T10:34:24;101439.31;;;23.04;96.56
23805;BME280;12083;52.098;7.582;2022-10-28T10:36:54;101436.56;;;23.05;96.52
23805;BME280;12083;52.098;7.582;2022-10-28T10:39:22;101433.56;;;23.10;96.66
23805;BME280;12083;52.098;7.582;2022-10-28T10:41:53;101435.28;;;23.11;95.77
23805;BME280;12083;52.098;7.582;2022-10-28T10:46:44;101431.03;;;23.21;95.70
23805;BME280;12083;52.098;7.582;2022-10-28T10:49:14;101432.16;;;23.31;95.58
23805;BME280;12083;52.098;7.582;2022-10-28T10:51:49;101435.59;;;23.47;95.12
23805;BME280;12083;52.098;7.582;2022-10-28T10:54:16;101430.06;;;23.63;94.63
23805;BME280;12083;52.098;7.582;2022-10-28T10:56:43;101442.03;;;23.84;93.97
23805;BME280;12083;52.098;7.582;2022-10-28T10:59:35;101439.28;;;24.11;92.67
23805;BME280;12083;52.098;7.582;2022-10-28T11:02:02;101431.38;;;24.35;92.27
23805;BME280;12083;52.098;7.582;2022-10-28T11:04:39;101431.50;;;24.58;91.08
23805;BME280;12083;52.098;7.582;2022-10-28T11:07:12;101425.13;;;24.85;89.76
23805;BME280;12083;52.098;7.582;2022-10-28T11:09:40;101419.25;;;25.16;88.80
23805;BME280;12083;52.098;7.582;2022-10-28T11:12:26;101423.28;;;25.58;86.68
23805;BME280;12083;52.098;7.582;2022-10-28T11:14:54;101430.25;;;25.95;85.47
23805;BME280;12083;52.098;7.582;2022-10-28T11:17:26;101417.63;;;26.20;83.02
23805;BME280;12083;52.098;7.582;2022-10-28T11:19:54;101411.91;;;26.35;82.52
23805;BME280;12083;52.098;7.582;2022-10-28T11:22:36;101419.00;;;26.47;81.68
23805;BME280;12083;52.098;7.582;2022-10-28T11:33:15;101403.34;;;26.52;79.13
23805;BME280;12083;52.098;7.582;2022-10-28T11:35:48;101395.50;;;26.61;79.50
23805;BME280;12083;52.098;7.582;2022-10-28T11:38:55;101391.19;;;26.80;79.90
23805;BME280;12083;52.098;7.582;2022-10-28T11:49:36;101389.13;;;26.95;80.04
23805;BME280;12083;52.098;7.582;2022-10-28T11:55:02;101382.00;;;26.72;79.85
23805;BME280;12083;52.098;7.582;2022-10-28T12:03:32;101373.91;;;26.83;80.07
23805;BME280;12083;52.098;7.582;2022-10-28T12:08:58;101374.41;;;26.99;79.70
23805;BME280;12083;52.098;7.582;2022-10-28T12:16:51;101363.69;;;27.09;79.18
23805;BME280;12083;52.098;7.582;2022-10-28T12:19:25;101353.38;;;27.14;79.21
23805;BME280;12083;52.098;7.582;2022-10-28T12:24:35;101342.13;;;27.09;79.00
23805;BME280;12083;52.098;7.582;2022-10-28T12:27:11;101338.59;;;26.97;78.70
23805;BME280;12083;52.098;7.582;2022-10-28T12:29:41;101339.59;;;26.85;78.82
23805;BME280;12083;52.098;7.582;2022-10-28T12:32:17;101340.56;;;26.73;78.61
23805;BME280;12083;52.098;7.582;2022-10-28T12:34:46;101345.25;;;26.60;78.66
23805;BME280;12083;52.098;7.582;2022-10-28T12:37:48;101334.59;;;26.47;78.73
23805;BME280;12083;52.098;7.582;2022-10-28T12:40:30;101339.66;;;26.40;78.79
23805;BME280;12083;52.098;7.582;2022-10-28T12:43:00;101338.03;;;26.38;79.24
23805;BME280;12083;52.098;7.582;2022-10-28T12:45:31;101335.84;;;26.32;78.94
23805;BME280;12083;52.098;7.582;2022-10-28T12:50:43;101323.47;;;26.18;79.12
23805;BME280;12083;52.098;7.582;2022-10-28T12:53:43;101320.50;;;26.10;78.52
23805;BME280;12083;52.098;7.582;2022-10-28T12:56:30;101317.31;;;26.05;79.07
23805;BME280;12083;52.098;7.582;2022-10-28T12:59:10;101319.03;;;26.06;79.02
23805;BME280;12083;52.098;7.582;2022-10-28T13:01:38;101314.63;;;26.05;79.14
23805;BME280;12083;52.098;7.582;2022-10-28T13:04:04;101310.47;;;26.01;79.39
23805;BME280;12083;52.098;7.582;2022-10-28T13:07:05;101300.19;;;25.95;78.51
23805;BME280;12083;52.098;7.582;2022-10-28T13:09:46;101306.28;;;25.86;79.08
23805;BME280;12083;52.098;7.582;2022-10-28T13:15:45;101324.50;;;25.71;79.04
23805;BME280;12083;52.098;7.582;2022-10-28T13:18:21;101311.38;;;25.67;79.84
23805;BME280;12083;52.098;7.582;2022-10-28T13:21:06;101318.22;;;25.59;79.29
23805;BME280;12083;52.098;7.582;2022-10-28T13:26:28;101315.34;;;25.50;79.39
23805;BME280;12083;52.098;7.582;2022-10-28T13:29:00;101321.81;;;25.47;80.05
23805;BME280;12083;52.098;7.582;2022-10-28T13:31:38;101322.28;;;25.41;79.41
23805;BME280;12083;52.098;7.582;2022-10-28T13:34:06;101324.25;;;25.39;79.42
23805;BME280;12083;52.098;7.582;2022-10-28T13:36:34;101323.47;;;25.37;79.91
23805;BME280;12083;52.098;7.582;2022-10-28T13:39:13;101331.78;;;25.34;79.70
23805;BME280;12083;52.098;7.582;2022-10-28T13:41:46;101318.56;;;25.31;80.01
23805;BME280;12083;52.098;7.582;2022-10-28T13:44:21;101333.22;;;25.27;79.61
23805;BME280;12083;52.098;7.582;2022-10-28T13:47:03;101330.66;;;25.26;79.64
23805;BME280;12083;52.098;7.582;2022-10-28T13:49:34;101326.50;;;25.22;80.13
23805;BME280;12083;52.098;7.582;2022-10-28T13:57:12;101328.44;;;25.20;80.00
23805;BME280;12083;52.098;7.582;2022-10-28T13:59:48;101338.31;;;25.19;79.84
23805;BME280;12083;52.098;7.582;2022-10-28T14:02:20;101336.59;;;25.18;79.97
23805;BME280;12083;52.098;7.582;2022-10-28T14:04:55;101335.78;;;25.18;80.20
23805;BME280;12083;52.098;7.582;2022-10-28T14:07:24;101344.91;;;25.15;80.40
23805;BME280;12083;52.098;7.582;2022-10-28T14:09:56;101341.50;;;25.13;80.10
23805;BME280;12083;52.098;7.582;2022-10-28T14:12:23;101335.34;;;25.11;80.35
23805;BME280;12083;52.098;7.582;2022-10-28T14:17:25;101339.38;;;25.05;80.54
23805;BME280;12083;52.098;7.582;2022-10-28T14:19:52;101332.38;;;25.03;80.35
23805;BME280;12083;52.098;7.582;2022-10-28T14:22:33;101339.72;;;25.01;80.18
23805;BME280;12083;52.098;7.582;2022-10-28T14:25:00;101347.88;;;24.99;80.36
23805;BME280;12083;52.098;7.582;2022-10-28T14:27:30;101343.59;;;24.97;80.70
23805;BME280;12083;52.098;7.582;2022-10-28T14:30:15;101348.22;;;24.95;80.78
23805;BME280;12083;52.098;7.582;2022-10-28T14:33:08;101344.91;;;24.91;80.48
23805;BME280;12083;52.098;7.582;2022-10-28T14:35:41;101348.69;;;24.89;80.63
23805;BME280;12083;52.098;7.582;2022-10-28T14:49:30;101365.91;;;24.74;81.55
23805;BME280;12083;52.098;7.582;2022-10-28T14:52:04;101359.97;;;24.68;81.29
23805;BME280;12083;52.098;7.582;2022-10-28T14:54:43;101355.94;;;24.63;81.21
23805;BME280;12083;52.098;7.582;2022-10-28T14:57:12;101361.63;;;24.58;81.35
23805;BME280;12083;52.098;7.582;2022-10-28T14:59:42;101364.66;;;24.54;81.28
23805;BME280;12083;52.098;7.582;2022-10-28T15:02:20;101371.22;;;24.50;81.02
